sensor_id;sensor_type;location;lat;lon;timestamp;temperature;humidity
6520;DHT22;3293;51.690;5.982;2023-01-01T00:03:22;14.80;99.90
6520;DHT22;3293;51.690;5.982;2023-01-01T00:08:23;14.80;99.90
6520;DHT22;3293;51.690;5.982;2023-01-01T00:13:24;14.80;99.90
6520;DHT22;3293;51.690;5.982;2023-01-01T00:18:24;14.80;99.90
6520;DHT22;3293;51.690;5.982;2023-01-01T00:23:24;14.70;99.90
6520;DHT22;3293;51.690;5.982;2023-01-01T00:28:25;14.70;99.90
6520;DHT22;3293;51.690;5.982;2023-01-01T00:33:25;14.70;99.90
6520;DHT22;3293;51.690;5.982;2023-01-01T00:38:25;14.70;99.90
6520;DHT22;3293;51.690;5.982;2023-01-01T00:43:25;14.70;99.90
6520;DHT22;3293;51.690;5.982;2023-01-01T00:48:25;14.70;99.90
6520;DHT22;3293;51.690;5.982;2023-01-01T00:53:25;14.70;99.90
6520;DHT22;3293;51.690;5.982;2023-01-01T00:58:25;14.70;99.90
6520;DHT22;3293;51.690;5.982;2023-01-01T01:03:25;14.70;99.90
6520;DHT22;3293;51.690;5.982;2023-01-01T01:08:30;14.60;99.90
6520;DHT22;3293;51.690;5.982;2023-01-01T01:13:30;14.50;99.90
6520;DHT22;3293;51.690;5.982;2023-01-01T01:18:30;14.50;99.90
6520;DHT22;3293;51.690;5.982;2023-01-01T01:23:31;14.50;99.90
6520;DHT22;3293;51.690;5.982;2023-01-01T01:28:31;14.50;99.90
6520;DHT22;3293;51.690;5.982;2023-01-01T01:33:31;14.50;99.90
6520;DHT22;3293;51.690;5.982;2023-01-01T01:38:31;14.50;99.90
6520;DHT22;3293;51.690;5.982;2023-01-01T01:48:38;14.50;99.90
6520;DHT22;3293;51.690;5.982;2023-01-01T01:53:44;14.60;99.90
6520;DHT22;3293;51.690;5.982;2023-01-01T01:58:44;14.50;99.90
6520;DHT22;3293;51.690;5.982;2023-01-01T02:03:56;14.40;99.90
6520;DHT22;3293;51.690;5.982;2023-01-01T02:08:58;14.40;99.90
6520;DHT22;3293;51.690;5.982;2023-01-01T02:14:00;14.40;99.90
6520;DHT22;3293;51.690;5.982;2023-01-01T02:29:55;14.40;99.90
6520;DHT22;3293;51.690;5.982;2023-01-01T02:35:07;14.40;99.90
6520;DHT22;3293;51.690;5.982;2023-01-01T02:40:27;14.40;99.90
6520;DHT22;3293;51.690;5.982;2023-01-01T02:45:27;14.30;99.90
6520;DHT22;3293;51.690;5.982;2023-01-01T02:50:27;14.20;99.90
6520;DHT22;3293;51.690;5.982;2023-01-01T02:55:33;14.20;99.90
6520;DHT22;3293;51.690;5.982;2023-01-01T03:00:36;14.20;99.90
6520;DHT22;3293;51.690;5.982;2023-01-01T03:11:14;14.10;99.90
6520;DHT22;3293;51.690;5.982;2023-01-01T03:16:20;14.10;99.90
6520;DHT22;3293;51.690;5.982;2023-01-01T03:21:23;14.20;99.90
6520;DHT22;3293;51.690;5.982;2023-01-01T03:26:24;14.20;99.90
6520;DHT22;3293;51.690;5.982;2023-01-01T03:31:26;14.20;99.90
6520;DHT22;3293;51.690;5.982;2023-01-01T03:36:31;14.20;99.90
6520;DHT22;3293;51.690;5.982;2023-01-01T03:41:38;14.20;99.90
6520;DHT22;3293;51.690;5.982;2023-01-01T03:46:39;14.20;99.90
6520;DHT22;3293;51.690;5.982;2023-01-01T04:02:18;14.20;99.90
6520;DHT22;3293;51.690;5.982;2023-01-01T04:07:19;14.30;99.90
6520;DHT22;3293;51.690;5.982;2023-01-01T04:12:20;14.30;99.90
6520;DHT22;3293;51.690;5.982;2023-01-01T04:17:20;14.10;99.90
6520;DHT22;3293;51.690;5.982;2023-01-01T04:22:20;14.10;99.90
6520;DHT22;3293;51.690;5.982;2023-01-01T04:27:21;14.10;99.90
6520;DHT22;3293;51.690;5.982;2023-01-01T04:32:21;14.00;99.90
6520;DHT22;3293;51.690;5.982;2023-01-01T04:37:21;14.10;99.90
6520;DHT22;3293;51.690;5.982;2023-01-01T04:42:21;14.10;99.90
6520;DHT22;3293;51.690;5.982;2023-01-01T04:47:21;14.10;99.90
6520;DHT22;3293;51.690;5.982;2023-01-01T04:52:21;14.10;99.90
6520;DHT22;3293;51.690;5.982;2023-01-01T04:57:21;14.00;99.90
6520;DHT22;3293;51.690;5.982;2023-01-01T05:02:21;14.00;99.90
6520;DHT22;3293;51.690;5.982;2023-01-01T05:07:21;13.90;99.90
6520;DHT22;3293;51.690;5.982;2023-01-01T05:12:21;13.90;99.90
6520;DHT22;3293;51.690;5.982;2023-01-01T05:17:21;13.90;99.90
6520;DHT22;3293;51.690;5.982;2023-01-01T05:22:21;13.90;99.90
6520;DHT22;3293;51.690;5.982;2023-01-01T05:27:21;13.90;99.90
6520;DHT22;3293;51.690;5.982;2023-01-01T05:32:20;13.90;99.90
6520;DHT22;3293;51.690;5.982;2023-01-01T05:37:20;13.90;99.90
6520;DHT22;3293;51.690;5.982;2023-01-01T05:42:20;13.80;99.90
6520;DHT22;3293;51.690;5.982;2023-01-01T05:47:20;13.80;99.90
6520;DHT22;3293;51.690;5.982;2023-01-01T05:52:21;13.90;99.90
6520;DHT22;3293;51.690;5.982;2023-01-01T05:57:20;13.80;99.90
6520;DHT22;3293;51.690;5.982;2023-01-01T06:02:20;13.90;99.90
6520;DHT22;3293;51.690;5.982;2023-01-01T06:07:20;13.90;99.90
6520;DHT22;3293;51.690;5.982;2023-01-01T06:12:20;13.90;99.90
6520;DHT22;3293;51.690;5.982;2023-01-01T06:17:20;13.90;99.90
6520;DHT22;3293;51.690;5.982;2023-01-01T06:22:20;14.00;99.90
6520;DHT22;3293;51.690;5.982;2023-01-01T06:27:20;14.00;99.90
6520;DHT22;3293;51.690;5.982;2023-01-01T06:32:20;14.00;99.90
6520;DHT22;3293;51.690;5.982;2023-01-01T06:37:20;13.90;99.90
6520;DHT22;3293;51.690;5.982;2023-01-01T06:42:20;13.90;99.90
6520;DHT22;3293;51.690;5.982;2023-01-01T06:47:19;13.90;99.90
6520;DHT22;3293;51.690;5.982;2023-01-01T06:52:19;13.80;99.90
6520;DHT22;3293;51.690;5.982;2023-01-01T06:57:19;13.80;99.90
6520;DHT22;3293;51.690;5.982;2023-01-01T07:02:19;13.70;99.90
6520;DHT22;3293;51.690;5.982;2023-01-01T07:07:19;13.60;99.90
6520;DHT22;3293;51.690;5.982;2023-01-01T07:12:19;13.20;99.90
6520;DHT22;3293;51.690;5.982;2023-01-01T07:17:19;12.90;99.90
6520;DHT22;3293;51.690;5.982;2023-01-01T07:22:19;12.50;99.90
6520;DHT22;3293;51.690;5.982;2023-01-01T07:27:19;12.20;99.90
6520;DHT22;3293;51.690;5.982;2023-01-01T07:32:19;12.00;99.90
6520;DHT22;3293;51.690;5.982;2023-01-01T07:37:18;11.90;99.90
6520;DHT22;3293;51.690;5.982;2023-01-01T07:42:19;11.90;99.90
6520;DHT22;3293;51.690;5.982;2023-01-01T07:47:24;11.80;99.90
6520;DHT22;3293;51.690;5.982;2023-01-01T07:52:24;11.70;99.90
6520;DHT22;3293;51.690;5.982;2023-01-01T07:57:24;11.60;99.90
6520;DHT22;3293;51.690;5.982;2023-01-01T08:02:24;11.50;99.90
6520;DHT22;3293;51.690;5.982;2023-01-01T08:07:24;11.60;99.90
6520;DHT22;3293;51.690;5.982;2023-01-01T08:12:25;11.50;99.90
6520;DHT22;3293;51.690;5.982;2023-01-01T08:17:25;11.50;99.90
6520;DHT22;3293;51.690;5.982;2023-01-01T08:22:25;11.60;99.90
6520;DHT22;3293;51.690;5.982;2023-01-01T08:27:25;11.60;99.90
6520;DHT22;3293;51.690;5.982;2023-01-01T08:32:24;11.60;99.90
6520;DHT22;3293;51.690;5.982;2023-01-01T08:37:24;11.60;99.90
6520;DHT22;3293;51.690;5.982;2023-01-01T08:42:25;11.50;99.90
6520;DHT22;3293;51.690;5.982;2023-01-01T08:47:25;11.50;99.90
6520;DHT22;3293;51.690;5.982;2023-01-01T08:52:25;11.40;99.90
6520;DHT22;3293;51.690;5.982;2023-01-01T08:57:29;11.30;99.90
6520;DHT22;3293;51.690;5.982;2023-01-01T09:02:30;11.20;99.90
6520;DHT22;3293;51.690;5.982;2023-01-01T09:07:30;11.10;99.90
6520;DHT22;3293;51.690;5.982;2023-01-01T09:12:30;11.00;99.90
6520;DHT22;3293;51.690;5.982;2023-01-01T09:17:30;11.00;99.90
6520;DHT22;3293;51.690;5.982;2023-01-01T09:22:30;11.00;99.90
6520;DHT22;3293;51.690;5.982;2023-01-01T09:27:30;11.00;99.90
6520;DHT22;3293;51.690;5.982;2023-01-01T09:32:30;11.10;99.90
6520;DHT22;3293;51.690;5.982;2023-01-01T09:37:32;11.10;99.90
6520;DHT22;3293;51.690;5.982;2023-01-01T09:42:52;11.10;99.90
6520;DHT22;3293;51.690;5.982;2023-01-01T09:48:05;11.10;99.90
6520;DHT22;3293;51.690;5.982;2023-01-01T09:53:33;11.20;99.90
6520;DHT22;3293;51.690;5.982;2023-01-01T09:58:35;11.20;99.90
6520;DHT22;3293;51.690;5.982;2023-01-01T10:03:49;11.20;99.90
6520;DHT22;3293;51.690;5.982;2023-01-01T10:09:10;11.20;99.90
6520;DHT22;3293;51.690;5.982;2023-01-01T10:14:36;11.10;99.90
6520;DHT22;3293;51.690;5.982;2023-01-01T10:19:42;11.10;99.90
6520;DHT22;3293;51.690;5.982;2023-01-01T10:24:47;11.20;99.90
6520;DHT22;3293;51.690;5.982;2023-01-01T10:29:49;11.30;99.90
6520;DHT22;3293;51.690;5.982;2023-01-01T10:34:51;11.40;99.90
6520;DHT22;3293;51.690;5.982;2023-01-01T10:39:51;11.40;99.90
6520;DHT22;3293;51.690;5.982;2023-01-01T10:44:51;11.50;99.90
6520;DHT22;3293;51.690;5.982;2023-01-01T10:50:04;11.50;99.90
6520;DHT22;3293;51.690;5.982;2023-01-01T10:55:28;11.60;99.90
6520;DHT22;3293;51.690;5.982;2023-01-01T11:00:28;11.60;99.90
6520;DHT22;3293;51.690;5.982;2023-01-01T11:05:30;11.60;99.90
6520;DHT22;3293;51.690;5.982;2023-01-01T11:10:30;11.70;99.90
6520;DHT22;3293;51.690;5.982;2023-01-01T11:15:39;11.80;99.90
6520;DHT22;3293;51.690;5.982;2023-01-01T11:20:40;11.70;99.90
6520;DHT22;3293;51.690;5.982;2023-01-01T11:26:28;11.80;99.90
6520;DHT22;3293;51.690;5.982;2023-01-01T11:31:27;12.00;99.90
6520;DHT22;3293;51.690;5.982;2023-01-01T11:36:30;12.20;99.90
6520;DHT22;3293;51.690;5.982;2023-01-01T11:41:41;12.30;99.90
6520;DHT22;3293;51.690;5.982;2023-01-01T11:46:45;12.40;99.90
6520;DHT22;3293;51.690;5.982;2023-01-01T11:51:46;12.50;99.90
6520;DHT22;3293;51.690;5.982;2023-01-01T11:56:49;12.60;99.90
6520;DHT22;3293;51.690;5.982;2023-01-01T12:01:59;12.70;99.90
6520;DHT22;3293;51.690;5.982;2023-01-01T12:07:03;12.70;99.90
6520;DHT22;3293;51.690;5.982;2023-01-01T12:17:40;12.80;99.90
6520;DHT22;3293;51.690;5.982;2023-01-01T12:22:41;13.00;99.90
6520;DHT22;3293;51.690;5.982;2023-01-01T12:33:26;13.00;99.90
6520;DHT22;3293;51.690;5.982;2023-01-01T12:38:55;13.10;99.90
6520;DHT22;3293;51.690;5.982;2023-01-01T12:49:33;13.00;99.90
6520;DHT22;3293;51.690;5.982;2023-01-01T13:00:03;12.80;99.90
6520;DHT22;3293;51.690;5.982;2023-01-01T13:05:24;12.80;99.90
6520;DHT22;3293;51.690;5.982;2023-01-01T13:10:38;12.70;99.90
6520;DHT22;3293;51.690;5.982;2023-01-01T13:15:54;12.60;99.90
6520;DHT22;3293;51.690;5.982;2023-01-01T13:21:03;12.70;99.90
6520;DHT22;3293;51.690;5.982;2023-01-01T13:31:17;12.70;99.90
6520;DHT22;3293;51.690;5.982;2023-01-01T13:51:56;12.70;99.90
6520;DHT22;3293;51.690;5.982;2023-01-01T14:03:00;12.70;99.90
6520;DHT22;3293;51.690;5.982;2023-01-01T14:08:01;12.70;99.90
6520;DHT22;3293;51.690;5.982;2023-01-01T14:18:11;12.50;99.90
6520;DHT22;3293;51.690;5.982;2023-01-01T14:28:31;12.40;99.90
6520;DHT22;3293;51.690;5.982;2023-01-01T14:33:33;12.30;99.90
6520;DHT22;3293;51.690;5.982;2023-01-01T14:38:34;12.30;99.90
6520;DHT22;3293;51.690;5.982;2023-01-01T14:43:39;12.30;99.90
6520;DHT22;3293;51.690;5.982;2023-01-01T14:48:44;12.30;99.90
6520;DHT22;3293;51.690;5.982;2023-01-01T14:53:46;12.30;99.90
6520;DHT22;3293;51.690;5.982;2023-01-01T14:58:47;12.30;99.90
6520;DHT22;3293;51.690;5.982;2023-01-01T15:04:02;12.30;99.90
6520;DHT22;3293;51.690;5.982;2023-01-01T15:09:03;12.20;99.90
6520;DHT22;3293;51.690;5.982;2023-01-01T15:14:03;12.10;99.90
6520;DHT22;3293;51.690;5.982;2023-01-01T15:19:16;12.10;99.90
6520;DHT22;3293;51.690;5.982;2023-01-01T15:24:18;12.10;99.90
6520;DHT22;3293;51.690;5.982;2023-01-01T15:29:36;12.00;99.90
6520;DHT22;3293;51.690;5.982;2023-01-01T15:39:52;12.10;99.90
6520;DHT22;3293;51.690;5.982;2023-01-01T15:44:54;12.10;99.90
6520;DHT22;3293;51.690;5.982;2023-01-01T15:55:24;12.10;99.90
6520;DHT22;3293;51.690;5.982;2023-01-01T16:00:27;12.00;99.90
6520;DHT22;3293;51.690;5.982;2023-01-01T16:05:29;12.00;99.90
6520;DHT22;3293;51.690;5.982;2023-01-01T16:10:29;12.00;99.90
6520;DHT22;3293;51.690;5.982;2023-01-01T16:15:30;11.90;99.90
6520;DHT22;3293;51.690;5.982;2023-01-01T16:20:30;11.90;99.90
6520;DHT22;3293;51.690;5.982;2023-01-01T16:25:30;11.90;99.90
6520;DHT22;3293;51.690;5.982;2023-01-01T16:30:31;11.90;99.90
6520;DHT22;3293;51.690;5.982;2023-01-01T16:35:31;11.90;99.90
6520;DHT22;3293;51.690;5.982;2023-01-01T16:40:31;11.90;99.90
6520;DHT22;3293;51.690;5.982;2023-01-01T16:45:31;11.80;99.90
6520;DHT22;3293;51.690;5.982;2023-01-01T16:50:31;11.80;99.90
6520;DHT22;3293;51.690;5.982;2023-01-01T16:55:31;11.70;99.90
6520;DHT22;3293;51.690;5.982;2023-01-01T17:00:31;11.70;99.90
6520;DHT22;3293;51.690;5.982;2023-01-01T17:05:31;11.70;99.90
6520;DHT22;3293;51.690;5.982;2023-01-01T17:10:34;11.60;99.90
6520;DHT22;3293;51.690;5.982;2023-01-01T17:15:33;11.50;99.90
6520;DHT22;3293;51.690;5.982;2023-01-01T17:20:34;11.50;99.90
6520;DHT22;3293;51.690;5.982;2023-01-01T17:25:33;11.40;99.90
6520;DHT22;3293;51.690;5.982;2023-01-01T17:30:33;11.30;99.90
6520;DHT22;3293;51.690;5.982;2023-01-01T17:35:33;11.30;99.90
6520;DHT22;3293;51.690;5.982;2023-01-01T17:40:33;11.30;99.90
6520;DHT22;3293;51.690;5.982;2023-01-01T17:45:35;11.30;99.90
6520;DHT22;3293;51.690;5.982;2023-01-01T17:50:35;11.20;99.90
6520;DHT22;3293;51.690;5.982;2023-01-01T17:55:35;11.10;99.90
6520;DHT22;3293;51.690;5.982;2023-01-01T18:00:35;11.10;99.90
6520;DHT22;3293;51.690;5.982;2023-01-01T18:05:35;11.10;99.90
6520;DHT22;3293;51.690;5.982;2023-01-01T18:10:35;11.10;99.90
6520;DHT22;3293;51.690;5.982;2023-01-01T18:15:35;11.10;99.90
6520;DHT22;3293;51.690;5.982;2023-01-01T18:20:36;11.10;99.90
6520;DHT22;3293;51.690;5.982;2023-01-01T18:25:36;11.10;99.90
6520;DHT22;3293;51.690;5.982;2023-01-01T18:30:37;11.10;99.90
6520;DHT22;3293;51.690;5.982;2023-01-01T18:35:37;11.00;99.90
6520;DHT22;3293;51.690;5.982;2023-01-01T18:40:40;11.10;99.90
6520;DHT22;3293;51.690;5.982;2023-01-01T18:45:43;11.10;99.90
6520;DHT22;3293;51.690;5.982;2023-01-01T18:50:43;11.00;99.90
6520;DHT22;3293;51.690;5.982;2023-01-01T18:56:08;11.00;99.90
6520;DHT22;3293;51.690;5.982;2023-01-01T19:01:15;11.00;99.90
6520;DHT22;3293;51.690;5.982;2023-01-01T19:06:31;11.00;99.90
6520;DHT22;3293;51.690;5.982;2023-01-01T19:11:33;11.00;99.90
6520;DHT22;3293;51.690;5.982;2023-01-01T19:16:33;11.00;99.90
6520;DHT22;3293;51.690;5.982;2023-01-01T19:21:35;10.90;99.90
6520;DHT22;3293;51.690;5.982;2023-01-01T19:26:36;11.00;99.90
6520;DHT22;3293;51.690;5.982;2023-01-01T19:31:38;10.90;99.90
6520;DHT22;3293;51.690;5.982;2023-01-01T19:36:38;11.00;99.90
6520;DHT22;3293;51.690;5.982;2023-01-01T19:41:39;10.90;99.90
6520;DHT22;3293;51.690;5.982;2023-01-01T19:46:39;10.90;99.90
6520;DHT22;3293;51.690;5.982;2023-01-01T19:51:39;10.90;99.90
6520;DHT22;3293;51.690;5.982;2023-01-01T19:56:39;10.90;99.90
6520;DHT22;3293;51.690;5.982;2023-01-01T20:01:39;10.90;99.90
6520;DHT22;3293;51.690;5.982;2023-01-01T20:06:39;10.90;99.90
6520;DHT22;3293;51.690;5.982;2023-01-01T20:11:39;10.90;99.90
6520;DHT22;3293;51.690;5.982;2023-01-01T20:16:40;10.80;99.90
6520;DHT22;3293;51.690;5.982;2023-01-01T20:21:40;10.80;99.90
6520;DHT22;3293;51.690;5.982;2023-01-01T20:26:58;10.90;99.90
6520;DHT22;3293;51.690;5.982;2023-01-01T20:32:00;10.80;99.90
6520;DHT22;3293;51.690;5.982;2023-01-01T20:37:00;10.90;99.90
6520;DHT22;3293;51.690;5.982;2023-01-01T20:42:18;10.90;99.90
6520;DHT22;3293;51.690;5.982;2023-01-01T20:47:18;10.90;99.90
6520;DHT22;3293;51.690;5.982;2023-01-01T20:52:19;10.90;99.90
6520;DHT22;3293;51.690;5.982;2023-01-01T20:57:19;10.90;99.90
6520;DHT22;3293;51.690;5.982;2023-01-01T21:02:19;10.80;99.90
6520;DHT22;3293;51.690;5.982;2023-01-01T21:07:19;10.90;99.90
6520;DHT22;3293;51.690;5.982;2023-01-01T21:12:19;10.90;99.90
6520;DHT22;3293;51.690;5.982;2023-01-01T21:17:21;10.90;99.90
6520;DHT22;3293;51.690;5.982;2023-01-01T21:22:21;10.90;99.90
6520;DHT22;3293;51.690;5.982;2023-01-01T21:27:28;10.90;99.90
6520;DHT22;3293;51.690;5.982;2023-01-01T21:32:38;10.90;99.90
6520;DHT22;3293;51.690;5.982;2023-01-01T21:37:38;10.90;99.90
6520;DHT22;3293;51.690;5.982;2023-01-01T21:42:49;10.80;99.90
6520;DHT22;3293;51.690;5.982;2023-01-01T21:47:51;10.80;99.90
6520;DHT22;3293;51.690;5.982;2023-01-01T21:52:56;10.80;99.90
6520;DHT22;3293;51.690;5.982;2023-01-01T21:58:00;10.80;99.90
6520;DHT22;3293;51.690;5.982;2023-01-01T22:03:20;10.80;99.90
6520;DHT22;3293;51.690;5.982;2023-01-01T22:08:24;10.80;99.90
6520;DHT22;3293;51.690;5.982;2023-01-01T22:13:24;10.80;99.90
6520;DHT22;3293;51.690;5.982;2023-01-01T22:18:27;10.80;99.90
6520;DHT22;3293;51.690;5.982;2023-01-01T22:23:40;10.80;99.90
6520;DHT22;3293;51.690;5.982;2023-01-01T22:28:42;10.80;99.90
6520;DHT22;3293;51.690;5.982;2023-01-01T22:33:45;10.90;99.90
6520;DHT22;3293;51.690;5.982;2023-01-01T22:38:45;10.90;99.90
6520;DHT22;3293;51.690;5.982;2023-01-01T22:43:46;10.90;99.90
6520;DHT22;3293;51.690;5.982;2023-01-01T22:48:47;10.90;99.90
6520;DHT22;3293;51.690;5.982;2023-01-01T22:53:47;10.90;99.90
6520;DHT22;3293;51.690;5.982;2023-01-01T22:58:47;10.90;99.90
6520;DHT22;3293;51.690;5.982;2023-01-01T23:03:47;10.90;99.90
6520;DHT22;3293;51.690;5.982;2023-01-01T23:08:48;10.90;99.90
6520;DHT22;3293;51.690;5.982;2023-01-01T23:13:50;10.90;99.90
6520;DHT22;3293;51.690;5.982;2023-01-01T23:19:09;10.90;99.90
6520;DHT22;3293;51.690;5.982;2023-01-01T23:24:11;11.00;99.90
6520;DHT22;3293;51.690;5.982;2023-01-01T23:29:12;10.90;99.90
6520;DHT22;3293;51.690;5.982;2023-01-01T23:34:13;10.90;99.90
6520;DHT22;3293;51.690;5.982;2023-01-01T23:39:13;11.00;99.90
6520;DHT22;3293;51.690;5.982;2023-01-01T23:44:13;11.00;99.90
6520;DHT22;3293;51.690;5.982;2023-01-01T23:49:13;11.00;99.90
6520;DHT22;3293;51.690;5.982;2023-01-01T23:54:14;11.10;99.90
6520;DHT22;3293;51.690;5.982;2023-01-01T23:59:13;11.20;99.90
